createdAt,value
2019-06-20T00:04:02.639Z,10.47
2019-06-20T00:10:11.555Z,10.10
2019-06-20T00:12:40.052Z,10.00
2019-06-20T00:16:02.775Z,12.40
2019-06-20T00:18:31.223Z,15.20
2019-06-20T00:20:59.677Z,16.90
2019-06-20T00:26:56.525Z,18.00
2019-06-20T00:29:24.950Z,22.05
2019-06-20T00:31:53.391Z,23.95
2019-06-20T00:34:21.846Z,23.77
2019-06-20T00:37:11.807Z,24.60
2019-06-20T00:39:40.232Z,21.60
2019-06-20T00:45:37.192Z,19.25
2019-06-20T00:48:05.724Z,17.80
2019-06-20T00:54:15.345Z,18.33
2019-06-20T01:00:25.711Z,23.03
2019-06-20T01:02:54.235Z,23.33
2019-06-20T01:08:50.827Z,15.13
2019-06-20T01:11:19.579Z,15.30
2019-06-20T01:16:52.156Z,15.47
2019-06-20T01:22:49.618Z,16.50
2019-06-20T01:25:21.114Z,18.03
2019-06-20T01:31:30.471Z,19.20
2019-06-20T01:33:58.925Z,16.73
2019-06-20T01:39:55.993Z,15.33
2019-06-20T01:45:53.320Z,13.30
2019-06-20T01:48:21.782Z,13.58
2019-06-20T01:50:50.376Z,11.90
2019-06-20T01:56:48.371Z,10.73
2019-06-20T01:59:16.851Z,9.87
2019-06-20T02:05:13.630Z,7.80
2019-06-20T02:07:42.067Z,8.80
2019-06-20T02:10:10.656Z,7.77
2019-06-20T02:12:39.107Z,7.20
2019-06-20T02:15:07.681Z,8.50
2019-06-20T02:21:05.647Z,6.80
2019-06-20T02:23:34.116Z,6.87
2019-06-20T02:29:43.149Z,7.83
2019-06-20T02:32:11.574Z,6.70
2019-06-20T02:34:40.025Z,7.43
2019-06-20T02:37:08.525Z,7.53
2019-06-20T02:39:36.979Z,6.00
2019-06-20T02:42:05.493Z,6.83
2019-06-20T02:44:33.959Z,7.27
2019-06-20T02:47:02.470Z,7.40
2019-06-20T02:53:11.501Z,6.73
2019-06-20T02:59:21.155Z,6.30
2019-06-20T03:01:50.266Z,7.03
2019-06-20T03:04:18.701Z,6.17
2019-06-20T03:06:47.223Z,5.87
2019-06-20T03:09:15.641Z,5.77
2019-06-20T03:11:44.089Z,6.75
2019-06-20T03:14:12.636Z,6.10
2019-06-20T03:16:41.183Z,6.73
2019-06-20T03:22:56.139Z,9.07
2019-06-20T03:25:24.708Z,10.13
2019-06-20T03:31:24.724Z,10.00
2019-06-20T03:33:59.022Z,10.43
2019-06-20T03:40:15.465Z,9.93
2019-06-20T03:42:46.499Z,11.33
2019-06-20T03:48:48.772Z,12.10
2019-06-20T03:51:20.181Z,12.77
2019-06-20T03:53:48.862Z,12.63
2019-06-20T03:59:48.186Z,12.10
2019-06-20T04:05:48.364Z,12.17
2019-06-20T04:08:16.992Z,13.50
2019-06-20T04:14:16.434Z,15.17
2019-06-20T04:16:45.058Z,13.90
2019-06-20T04:22:42.347Z,13.53
2019-06-20T04:25:10.917Z,14.03
2019-06-20T04:31:07.502Z,14.20
2019-06-20T04:33:36.026Z,16.93
2019-06-20T04:36:04.704Z,16.20
2019-06-20T04:38:36.161Z,17.80
2019-06-20T04:41:04.714Z,17.20
2019-06-20T04:43:33.777Z,18.13
2019-06-20T04:49:31.434Z,20.80
2019-06-20T04:55:28.446Z,19.87
2019-06-20T04:57:56.997Z,20.92
2019-06-20T05:00:25.637Z,21.03
2019-06-20T05:02:55.611Z,18.50
2019-06-20T05:05:24.562Z,23.43
2019-06-20T05:07:53.061Z,20.03
2019-06-20T05:10:21.708Z,20.43
2019-06-20T05:16:26.824Z,19.42
2019-06-20T05:19:18.692Z,18.85
2019-06-20T05:24:51.630Z,19.33
2019-06-20T05:31:00.873Z,22.27
2019-06-20T05:33:29.405Z,20.62
2019-06-20T05:35:57.901Z,22.27
2019-06-20T05:38:26.346Z,21.48
2019-06-20T05:40:54.829Z,19.73
2019-06-20T05:47:11.201Z,19.87
2019-06-20T05:52:28.118Z,21.25
2019-06-20T05:58:25.134Z,21.00
2019-06-20T06:04:34.366Z,19.90
2019-06-20T06:10:43.686Z,19.63
2019-06-20T06:16:44.125Z,20.57
2019-06-20T06:19:55.021Z,19.47
2019-06-20T06:26:03.605Z,20.23
2019-06-20T06:28:32.056Z,17.87
2019-06-20T06:31:00.500Z,18.03
2019-06-20T06:33:28.915Z,18.27
2019-06-20T06:35:57.382Z,20.40
2019-06-20T06:38:25.815Z,20.50
2019-06-20T06:40:54.252Z,21.13
2019-06-20T06:43:22.717Z,20.13
2019-06-20T06:45:52.259Z,22.53
2019-06-20T06:48:20.866Z,20.83
2019-06-20T06:50:50.267Z,19.83
2019-06-20T06:53:19.192Z,19.60
2019-06-20T06:55:48.460Z,19.23
2019-06-20T06:58:16.925Z,18.90
2019-06-20T07:00:45.269Z,16.30
2019-06-20T07:03:13.715Z,16.30
2019-06-20T07:05:42.265Z,15.17
2019-06-20T07:08:10.680Z,15.67
2019-06-20T07:10:39.187Z,15.20
2019-06-20T07:13:07.701Z,13.27
2019-06-20T07:15:36.149Z,13.00
2019-06-20T07:18:04.633Z,12.97
2019-06-20T07:20:33.077Z,13.38
2019-06-20T07:23:01.518Z,11.93
2019-06-20T07:25:29.994Z,11.57
2019-06-20T07:27:58.430Z,12.50
2019-06-20T07:30:27.077Z,10.88
2019-06-20T07:32:55.510Z,10.40
2019-06-20T07:35:24.519Z,11.17
2019-06-20T07:37:52.979Z,10.00
2019-06-20T07:40:21.535Z,11.70
2019-06-20T07:42:49.984Z,10.67
2019-06-20T07:45:21.463Z,9.77
2019-06-20T07:47:49.891Z,10.80
2019-06-20T07:50:18.328Z,8.90
2019-06-20T07:53:00.839Z,9.93
2019-06-20T07:55:17.014Z,8.30
2019-06-20T07:57:45.452Z,7.30
2019-06-20T08:00:14.327Z,8.43
2019-06-20T08:02:42.902Z,8.33
2019-06-20T08:05:13.167Z,7.07
2019-06-20T08:07:41.667Z,6.70
2019-06-20T08:10:14.811Z,5.50
2019-06-20T08:12:43.437Z,5.47
2019-06-20T08:15:15.536Z,5.67
2019-06-20T08:17:43.488Z,5.00
2019-06-20T08:20:13.135Z,5.40
2019-06-20T08:22:41.643Z,5.70
2019-06-20T08:25:10.738Z,5.27
2019-06-20T08:27:57.167Z,5.77
2019-06-20T08:30:29.637Z,4.90
2019-06-20T08:33:01.109Z,4.30
2019-06-20T08:35:31.472Z,4.83
2019-06-20T08:38:01.233Z,5.87
2019-06-20T08:40:32.881Z,5.08
2019-06-20T08:43:02.143Z,6.53
2019-06-20T08:45:33.303Z,4.87
2019-06-20T08:48:02.599Z,5.60
2019-06-20T08:50:31.397Z,4.27
2019-06-20T08:53:01.473Z,4.10
2019-06-20T08:55:30.250Z,5.60
2019-06-20T08:57:59.681Z,5.20
2019-06-20T09:00:31.018Z,4.80
2019-06-20T09:03:00.445Z,4.67
2019-06-20T09:05:30.744Z,5.12
2019-06-20T09:10:35.385Z,5.07
2019-06-20T09:13:04.070Z,4.13
2019-06-20T09:15:32.526Z,4.73
2019-06-20T09:18:00.958Z,4.08
2019-06-20T09:20:29.460Z,5.10
2019-06-20T09:22:58.913Z,4.40
2019-06-20T09:25:27.375Z,4.87
2019-06-20T09:27:56.000Z,4.30
2019-06-20T09:30:24.545Z,4.50
2019-06-20T09:32:53.939Z,4.13
2019-06-20T09:35:22.393Z,4.33
2019-06-20T09:37:51.838Z,4.27
2019-06-20T09:40:21.050Z,4.00
2019-06-20T09:42:51.146Z,3.77
2019-06-20T09:45:20.433Z,3.70
2019-06-20T09:47:50.432Z,3.40
2019-06-20T09:50:21.689Z,4.00
2019-06-20T09:52:51.384Z,3.73
2019-06-20T09:55:20.562Z,3.70
2019-06-20T09:57:50.299Z,4.00
2019-06-20T10:00:21.317Z,4.30
2019-06-20T10:02:50.681Z,4.27
2019-06-20T10:05:20.389Z,3.50
2019-06-20T10:07:50.186Z,3.50
2019-06-20T10:10:19.064Z,3.50
2019-06-20T10:12:47.993Z,3.50
2019-06-20T10:15:33.497Z,4.20
2019-06-20T10:18:02.037Z,4.20
2019-06-20T10:20:30.538Z,3.70
2019-06-20T10:22:58.968Z,3.70
2019-06-20T10:25:27.382Z,3.50
2019-06-20T10:27:55.815Z,3.43
2019-06-20T10:30:26.714Z,3.60
2019-06-20T10:32:55.101Z,3.27
2019-06-20T10:35:24.707Z,3.33
2019-06-20T10:37:53.298Z,3.90
2019-06-20T10:40:21.949Z,3.47
2019-06-20T10:42:50.384Z,3.40
2019-06-20T10:45:20.943Z,3.20
2019-06-20T10:47:50.770Z,3.63
2019-06-20T10:50:20.733Z,3.27
2019-06-20T10:52:50.101Z,3.63
2019-06-20T10:55:19.196Z,3.13
2019-06-20T10:57:49.638Z,3.07
2019-06-20T11:00:30.357Z,3.15
2019-06-20T11:02:49.108Z,3.20
2019-06-20T11:05:18.875Z,4.10
2019-06-20T11:07:47.656Z,2.97
2019-06-20T11:10:16.882Z,2.00
2019-06-20T11:12:50.223Z,2.33
2019-06-20T11:15:16.431Z,1.93
2019-06-20T11:17:46.184Z,2.33
2019-06-20T11:20:16.232Z,2.30
2019-06-20T11:22:45.396Z,2.00
2019-06-20T11:25:18.949Z,2.17
2019-06-20T11:27:47.333Z,3.03
2019-06-20T11:30:44.777Z,2.50
2019-06-20T11:33:00.856Z,2.30
2019-06-20T11:35:29.247Z,2.50
2019-06-20T11:37:57.710Z,2.53
2019-06-20T11:40:26.279Z,2.33
2019-06-20T11:42:54.785Z,2.27
2019-06-20T11:45:23.660Z,2.30
2019-06-20T11:50:27.750Z,2.40
2019-06-20T11:52:56.157Z,2.47
2019-06-20T11:55:24.698Z,2.40
2019-06-20T11:57:53.134Z,2.00
2019-06-20T12:00:23.116Z,2.17
2019-06-20T12:02:51.547Z,2.20
2019-06-20T12:05:20.378Z,2.77
2019-06-20T12:07:50.011Z,2.83
2019-06-20T12:10:20.171Z,2.40
2019-06-20T12:12:49.163Z,1.90
2019-06-20T12:15:19.552Z,2.00
2019-06-20T12:17:49.285Z,2.60
2019-06-20T12:20:18.503Z,2.10
2019-06-20T12:22:46.911Z,2.30
2019-06-20T12:25:17.246Z,2.17
2019-06-20T12:27:45.835Z,2.80
2019-06-20T12:30:16.918Z,2.50
2019-06-20T12:32:46.684Z,2.77
2019-06-20T12:35:15.598Z,2.90
2019-06-20T12:37:45.191Z,2.67
2019-06-20T12:40:14.626Z,2.60
2019-06-20T12:42:43.568Z,2.73
2019-06-20T12:45:15.740Z,2.63
2019-06-20T12:47:44.233Z,2.40
2019-06-20T12:50:14.298Z,2.50
2019-06-20T12:52:42.846Z,2.50
2019-06-20T12:55:12.419Z,2.40
2019-06-20T12:57:42.108Z,2.33
2019-06-20T13:00:12.689Z,2.50
2019-06-20T13:02:42.046Z,2.50
2019-06-20T13:05:13.315Z,2.90
2019-06-20T13:07:42.355Z,3.60
2019-06-20T13:10:11.306Z,3.07
2019-06-20T13:12:41.408Z,3.20
2019-06-20T13:15:10.524Z,3.00
2019-06-20T13:17:39.945Z,2.83
2019-06-20T13:20:10.306Z,2.97
2019-06-20T13:22:39.511Z,3.03
2019-06-20T13:25:11.003Z,3.35
2019-06-20T13:27:40.977Z,3.37
2019-06-20T13:30:10.894Z,3.53
2019-06-20T13:32:41.685Z,3.87
2019-06-20T13:35:13.710Z,3.07
2019-06-20T13:37:43.451Z,3.73
2019-06-20T13:40:16.507Z,3.17
2019-06-20T13:42:46.162Z,3.27
2019-06-20T13:45:26.955Z,3.70
2019-06-20T13:47:56.356Z,5.13
2019-06-20T13:50:27.541Z,5.65
2019-06-20T13:52:56.009Z,6.77
2019-06-20T13:55:24.593Z,7.07
2019-06-20T13:57:53.213Z,7.10
2019-06-20T14:00:23.577Z,7.33
2019-06-20T14:02:52.202Z,8.03
2019-06-20T14:05:20.973Z,7.07
2019-06-20T14:07:52.912Z,8.53
2019-06-20T14:10:20.215Z,7.12
2019-06-20T14:12:49.042Z,8.67
2019-06-20T14:15:17.587Z,7.43
2019-06-20T14:17:47.167Z,8.50
2019-06-20T14:20:16.604Z,6.33
2019-06-20T14:22:45.260Z,7.00
2019-06-20T14:25:13.769Z,7.33
2019-06-20T14:27:42.336Z,7.73
2019-06-20T14:30:13.526Z,9.80
2019-06-20T14:32:43.994Z,10.43
2019-06-20T14:35:16.258Z,10.00
2019-06-20T14:37:46.070Z,11.37
2019-06-20T14:40:16.136Z,12.73
2019-06-20T14:42:45.950Z,12.80
2019-06-20T14:45:15.161Z,13.33
2019-06-20T14:47:43.718Z,13.67
2019-06-20T14:50:12.982Z,14.20
2019-06-20T14:52:42.698Z,13.90
2019-06-20T14:55:12.486Z,14.73
2019-06-20T14:57:41.115Z,16.82
2019-06-20T15:00:11.203Z,16.87
2019-06-20T15:02:39.643Z,18.60
2019-06-20T15:05:16.839Z,19.57
2019-06-20T15:07:47.231Z,19.90
2019-06-20T15:10:19.453Z,17.70
2019-06-20T15:12:49.852Z,17.62
2019-06-20T15:15:18.303Z,18.30
2019-06-20T15:17:49.504Z,18.90
2019-06-20T15:20:17.109Z,18.50
2019-06-20T15:22:47.004Z,18.77
2019-06-20T15:25:16.193Z,20.43
2019-06-20T15:27:47.254Z,21.27
2019-06-20T15:30:15.145Z,19.57
2019-06-20T15:32:55.591Z,22.13
2019-06-20T15:35:14.088Z,20.93
2019-06-20T15:37:42.515Z,20.93
2019-06-20T15:40:12.194Z,19.77
2019-06-20T15:42:40.633Z,18.37
2019-06-20T15:45:10.913Z,20.23
2019-06-20T15:47:39.347Z,18.77
2019-06-20T15:50:09.425Z,19.60
2019-06-20T15:52:37.907Z,18.37
2019-06-20T15:55:07.639Z,20.43
2019-06-20T15:57:36.615Z,18.03
2019-06-20T16:00:09.581Z,17.90
2019-06-20T16:02:38.015Z,19.83
2019-06-20T16:05:08.182Z,18.93
2019-06-20T16:07:37.072Z,17.70
2019-06-20T16:10:09.702Z,16.30
2019-06-20T16:12:38.149Z,16.13
2019-06-20T16:15:11.599Z,15.50
2019-06-20T16:17:40.113Z,14.30
2019-06-20T16:20:09.092Z,16.00
2019-06-20T16:22:37.584Z,14.07
2019-06-20T16:25:12.766Z,13.60
2019-06-20T16:27:41.700Z,13.60
2019-06-20T16:30:13.236Z,13.03
2019-06-20T16:32:41.862Z,13.10
2019-06-20T16:35:10.731Z,13.37
2019-06-20T16:37:39.180Z,13.60
2019-06-20T16:40:09.024Z,13.50
2019-06-20T16:42:37.554Z,12.17
2019-06-20T16:45:09.107Z,11.43
2019-06-20T16:47:37.727Z,12.27
2019-06-20T16:50:07.614Z,12.00
2019-06-20T16:52:36.222Z,11.20
2019-06-20T16:55:08.592Z,10.40
2019-06-20T16:57:36.994Z,9.93
2019-06-20T17:00:09.595Z,10.30
2019-06-20T17:02:38.086Z,11.28
2019-06-20T17:05:07.222Z,10.80
2019-06-20T17:07:35.642Z,8.50
2019-06-20T17:10:06.853Z,8.30
2019-06-20T17:12:35.403Z,7.33
2019-06-20T17:15:04.789Z,6.63
2019-06-20T17:17:33.267Z,6.97
2019-06-20T17:20:01.803Z,6.80
2019-06-20T17:22:30.426Z,6.57
2019-06-20T17:24:58.887Z,7.33
2019-06-20T17:27:27.335Z,6.30
2019-06-20T17:29:55.815Z,7.20
2019-06-20T17:32:24.265Z,7.47
2019-06-20T17:34:52.661Z,6.30
2019-06-20T17:37:21.070Z,6.53
2019-06-20T17:39:49.519Z,5.50
2019-06-20T17:42:17.968Z,5.70
2019-06-20T17:44:46.388Z,4.80
2019-06-20T17:47:14.800Z,5.22
2019-06-20T17:49:43.201Z,5.10
2019-06-20T17:52:11.716Z,4.73
2019-06-20T17:54:40.195Z,4.60
2019-06-20T17:57:08.646Z,4.28
2019-06-20T17:59:37.064Z,4.50
2019-06-20T18:02:06.184Z,4.10
2019-06-20T18:04:35.580Z,3.50
2019-06-20T18:07:04.169Z,3.63
2019-06-20T18:09:32.625Z,3.60
2019-06-20T18:12:01.030Z,3.93
2019-06-20T18:14:29.485Z,3.70
2019-06-20T18:16:57.990Z,3.60
2019-06-20T18:19:26.474Z,3.30
2019-06-20T18:21:54.894Z,3.50
2019-06-20T18:24:23.312Z,3.50
2019-06-20T18:26:51.781Z,4.10
2019-06-20T18:29:20.304Z,4.30
2019-06-20T18:31:48.721Z,3.58
2019-06-20T18:34:29.516Z,3.40
2019-06-20T18:36:47.362Z,4.10
2019-06-20T18:39:15.838Z,3.90
2019-06-20T18:41:47.477Z,4.03
2019-06-20T18:44:17.505Z,3.70
2019-06-20T18:46:46.084Z,3.73
2019-06-20T18:49:14.518Z,4.23
2019-06-20T18:51:42.982Z,3.57
2019-06-20T18:54:11.374Z,4.10
2019-06-20T18:56:39.840Z,4.17
2019-06-20T18:59:08.278Z,4.40
2019-06-20T19:01:36.779Z,4.23
2019-06-20T19:04:05.564Z,4.30
2019-06-20T19:06:36.337Z,5.50
2019-06-20T19:09:07.275Z,6.97
2019-06-20T19:11:35.669Z,6.97
2019-06-20T19:14:04.381Z,6.30
2019-06-20T19:16:32.875Z,6.87
2019-06-20T19:19:01.792Z,6.53
2019-06-20T19:21:30.382Z,7.20
2019-06-20T19:24:00.205Z,7.10
2019-06-20T19:26:28.686Z,6.20
2019-06-20T19:28:57.150Z,7.40
2019-06-20T19:31:25.582Z,7.43
2019-06-20T19:33:54.037Z,7.28
2019-06-20T19:36:22.457Z,7.00
2019-06-20T19:38:50.899Z,7.60
2019-06-20T19:41:19.351Z,7.10
2019-06-20T19:43:47.775Z,5.97
2019-06-20T19:46:16.647Z,5.97
2019-06-20T19:48:45.139Z,6.57
2019-06-20T19:51:13.609Z,6.93
2019-06-20T19:53:45.861Z,6.77
2019-06-20T19:56:12.435Z,6.90
2019-06-20T19:58:40.965Z,7.47
2019-06-20T20:01:09.465Z,7.93
2019-06-20T20:03:38.078Z,8.47
2019-06-20T20:06:06.620Z,7.80
2019-06-20T20:08:35.106Z,9.85
2019-06-20T20:11:03.571Z,9.07
2019-06-20T20:13:31.987Z,10.10
2019-06-20T20:16:00.609Z,9.20
2019-06-20T20:18:29.073Z,8.45
2019-06-20T20:20:57.524Z,8.60
2019-06-20T20:23:26.042Z,9.90
2019-06-20T20:25:54.638Z,8.33
2019-06-20T20:28:23.119Z,9.03
2019-06-20T20:30:53.644Z,8.10
2019-06-20T20:33:21.727Z,8.90
2019-06-20T20:35:50.162Z,9.43
2019-06-20T20:38:18.585Z,9.93
2019-06-20T20:40:47.051Z,10.10
2019-06-20T20:43:15.621Z,10.67
2019-06-20T20:45:44.221Z,9.87
2019-06-20T20:48:12.688Z,10.47
2019-06-20T20:50:41.170Z,9.97
2019-06-20T20:53:09.593Z,10.10
2019-06-20T20:55:38.116Z,9.73
2019-06-20T20:58:06.555Z,9.30
2019-06-20T21:00:44.116Z,10.10
2019-06-20T21:03:12.652Z,9.80
2019-06-20T21:05:50.879Z,10.30
2019-06-20T21:08:11.519Z,10.70
2019-06-20T21:10:39.978Z,10.93
2019-06-20T21:13:08.387Z,11.10
2019-06-20T21:15:36.874Z,11.30
2019-06-20T21:18:05.464Z,12.57
2019-06-20T21:20:33.887Z,11.60
2019-06-20T21:23:02.339Z,12.00
2019-06-20T21:25:32.339Z,12.23
2019-06-20T21:28:01.025Z,11.97
2019-06-20T21:30:29.511Z,12.70
2019-06-20T21:32:57.981Z,11.68
2019-06-20T21:35:26.438Z,12.93
2019-06-20T21:37:54.882Z,11.73
2019-06-20T21:40:23.467Z,12.60
2019-06-20T21:42:51.916Z,12.90
2019-06-20T21:45:20.963Z,13.87
2019-06-20T21:47:49.396Z,13.20
2019-06-20T21:50:17.967Z,13.85
2019-06-20T21:52:46.425Z,15.20
2019-06-20T21:55:15.043Z,14.10
2019-06-20T21:57:43.479Z,13.98
2019-06-20T22:00:37.755Z,13.75
2019-06-20T22:03:06.904Z,13.77
2019-06-20T22:05:35.424Z,13.43
2019-06-20T22:08:04.192Z,13.50
2019-06-20T22:10:32.595Z,14.40
2019-06-20T22:13:01.105Z,14.00
2019-06-20T22:15:29.611Z,13.80
2019-06-20T22:17:58.057Z,13.03
2019-06-20T22:20:26.630Z,12.20
2019-06-20T22:22:55.109Z,12.53
2019-06-20T22:25:24.727Z,13.10
2019-06-20T22:27:53.169Z,12.87
2019-06-20T22:30:30.295Z,13.10
2019-06-20T22:32:58.759Z,16.47
2019-06-20T22:35:27.182Z,13.58
2019-06-20T22:37:55.588Z,14.20
2019-06-20T22:40:24.035Z,13.67
2019-06-20T22:42:52.457Z,14.87
2019-06-20T22:45:21.782Z,14.50
2019-06-20T22:47:50.190Z,15.53
2019-06-20T22:50:18.786Z,15.53
2019-06-20T22:52:47.267Z,15.13
2019-06-20T22:55:15.694Z,13.07
2019-06-20T22:57:44.149Z,12.20
2019-06-20T23:00:13.919Z,13.40
2019-06-20T23:02:42.475Z,12.70
2019-06-20T23:05:11.060Z,12.70
2019-06-20T23:07:39.555Z,13.20
2019-06-20T23:10:11.214Z,14.43
2019-06-20T23:12:40.009Z,14.50
2019-06-20T23:15:09.486Z,16.30
2019-06-20T23:17:38.026Z,16.30
2019-06-20T23:20:10.528Z,15.47
2019-06-20T23:22:39.056Z,14.60
2019-06-20T23:25:08.847Z,15.93
2019-06-20T23:27:37.290Z,15.07
2019-06-20T23:30:13.138Z,14.30
2019-06-20T23:32:41.625Z,16.80
2019-06-20T23:35:11.712Z,16.53
2019-06-20T23:37:40.161Z,15.77
2019-06-20T23:40:10.135Z,19.00
2019-06-20T23:42:38.650Z,27.20
2019-06-20T23:45:08.200Z,26.33
2019-06-20T23:47:36.748Z,24.70
2019-06-20T23:50:09.203Z,22.87
2019-06-20T23:52:39.279Z,22.30
2019-06-20T23:55:08.193Z,21.20
2019-06-20T23:57:36.609Z,23.90
